createdAt,value
2022-12-01T00:01:11.192Z,18.27
2022-12-01T00:03:39.028Z,17.03
2022-12-01T00:06:16.915Z,13.52
2022-12-01T00:11:12.008Z,16.05
2022-12-01T00:13:39.221Z,18.08
2022-12-01T00:16:14.148Z,19.42
2022-12-01T00:18:41.711Z,19.27
2022-12-01T00:21:19.584Z,20.10
2022-12-01T00:23:48.923Z,20.45
2022-12-01T00:26:17.683Z,18.65
2022-12-01T00:28:48.165Z,16.98
2022-12-01T00:31:15.403Z,17.45
2022-12-01T00:33:42.559Z,21.47
2022-12-01T00:36:09.925Z,18.25
2022-12-01T00:38:37.284Z,18.88
2022-12-01T00:41:04.901Z,18.30
2022-12-01T00:43:32.381Z,18.85
2022-12-01T00:45:59.676Z,21.08
2022-12-01T00:48:27.096Z,19.33
2022-12-01T00:50:55.112Z,20.33
2022-12-01T00:53:23.823Z,19.90
2022-12-01T00:55:51.366Z,19.20
2022-12-01T00:58:18.421Z,20.05
2022-12-01T01:00:45.501Z,15.55
2022-12-01T01:03:12.651Z,18.60
2022-12-01T01:05:41.597Z,18.52
2022-12-01T01:08:13.954Z,16.90
2022-12-01T01:10:42.758Z,17.13
2022-12-01T01:13:10.072Z,17.20
2022-12-01T01:15:37.520Z,15.02
2022-12-01T01:18:05.614Z,14.15
2022-12-01T01:20:33.600Z,17.63
2022-12-01T01:23:00.816Z,14.43
2022-12-01T01:25:27.971Z,15.27
2022-12-01T01:27:55.473Z,15.73
2022-12-01T01:30:22.569Z,20.45
2022-12-01T01:32:49.672Z,19.33
2022-12-01T01:35:16.815Z,17.67
2022-12-01T01:37:43.895Z,19.50
2022-12-01T01:40:11.481Z,17.65
2022-12-01T01:42:38.616Z,19.42
2022-12-01T01:45:26.157Z,21.17
2022-12-01T01:47:55.488Z,19.85
2022-12-01T01:50:25.991Z,18.35
2022-12-01T01:52:59.151Z,21.02
2022-12-01T01:55:27.236Z,18.90
2022-12-01T02:00:21.996Z,18.40
2022-12-01T02:02:50.587Z,14.93
2022-12-01T02:05:17.676Z,17.73
2022-12-01T02:07:46.344Z,18.83
2022-12-01T02:10:16.061Z,21.48
2022-12-01T02:12:55.103Z,17.27
2022-12-01T02:15:36.161Z,15.82
2022-12-01T02:18:25.847Z,19.50
2022-12-01T02:21:19.211Z,18.10
2022-12-01T02:24:20.240Z,15.68
2022-12-01T02:26:56.813Z,15.85
2022-12-01T02:29:55.253Z,14.90
2022-12-01T02:32:25.272Z,16.83
2022-12-01T02:35:13.128Z,16.52
2022-12-01T02:40:26.997Z,14.52
2022-12-01T02:43:06.122Z,14.35
2022-12-01T02:45:45.403Z,18.20
2022-12-01T02:48:20.654Z,16.70
2022-12-01T02:50:49.410Z,16.38
2022-12-01T02:53:18.843Z,15.30
2022-12-01T02:55:57.841Z,16.63
2022-12-01T02:58:25.178Z,18.58
2022-12-01T03:01:17.940Z,20.67
2022-12-01T03:03:45.053Z,17.92
2022-12-01T03:06:25.454Z,17.63
2022-12-01T03:09:18.497Z,18.60
2022-12-01T03:12:22.851Z,17.50
2022-12-01T03:15:19.267Z,18.17
2022-12-01T03:18:13.543Z,14.75
2022-12-01T03:21:08.302Z,18.38
2022-12-01T03:23:41.483Z,16.58
2022-12-01T03:26:13.072Z,19.90
2022-12-01T03:28:46.605Z,14.73
2022-12-01T03:31:19.089Z,17.80
2022-12-01T03:34:04.037Z,18.60
2022-12-01T03:36:37.893Z,16.10
2022-12-01T03:39:10.947Z,15.32
2022-12-01T03:41:43.925Z,17.88
2022-12-01T03:44:19.124Z,17.20
2022-12-01T03:47:07.448Z,18.05
2022-12-01T03:49:36.005Z,18.98
2022-12-01T03:52:24.234Z,16.52
2022-12-01T03:55:27.614Z,16.27
2022-12-01T03:58:17.997Z,15.30
2022-12-01T04:00:46.564Z,16.27
2022-12-01T04:03:18.897Z,16.17
2022-12-01T04:05:46.719Z,15.48
2022-12-01T04:08:14.040Z,14.98
2022-12-01T04:10:41.184Z,16.33
2022-12-01T04:13:08.462Z,16.52
2022-12-01T04:15:35.440Z,13.87
2022-12-01T04:18:02.501Z,14.55
2022-12-01T04:20:29.737Z,18.93
2022-12-01T04:22:56.872Z,15.02
2022-12-01T04:25:23.985Z,18.67
2022-12-01T04:27:51.102Z,16.83
2022-12-01T04:30:18.180Z,18.17
2022-12-01T04:32:45.500Z,14.70
2022-12-01T04:35:13.053Z,15.47
2022-12-01T04:37:40.352Z,15.68
2022-12-01T04:40:08.678Z,16.40
2022-12-01T04:42:35.880Z,15.90
2022-12-01T04:45:03.764Z,15.83
2022-12-01T04:47:30.905Z,16.08
2022-12-01T04:49:58.132Z,14.30
2022-12-01T04:52:26.089Z,16.40
2022-12-01T04:54:54.480Z,17.10
2022-12-01T04:57:21.619Z,15.90
2022-12-01T04:59:48.899Z,17.63
2022-12-01T05:02:16.317Z,16.27
2022-12-01T05:04:44.115Z,16.70
2022-12-01T05:07:11.240Z,16.08
2022-12-01T05:09:38.453Z,15.93
2022-12-01T05:12:05.651Z,13.80
2022-12-01T05:14:32.825Z,15.40
2022-12-01T05:17:00.088Z,15.82
2022-12-01T05:19:27.280Z,15.38
2022-12-01T05:21:54.331Z,15.80
2022-12-01T05:24:22.107Z,13.80
2022-12-01T05:26:49.357Z,14.88
2022-12-01T05:29:16.481Z,15.57
2022-12-01T05:31:45.367Z,16.30
2022-12-01T05:34:12.589Z,14.77
2022-12-01T05:36:39.643Z,15.93
2022-12-01T05:39:06.769Z,17.15
2022-12-01T05:41:34.012Z,15.40
2022-12-01T05:44:01.274Z,14.57
2022-12-01T05:46:28.319Z,15.32
2022-12-01T05:48:55.359Z,15.82
2022-12-01T05:51:22.536Z,16.80
2022-12-01T05:53:49.646Z,15.52
2022-12-01T05:56:16.755Z,14.63
2022-12-01T05:58:43.921Z,13.63
2022-12-01T06:01:11.004Z,12.57
2022-12-01T06:03:38.191Z,14.70
2022-12-01T06:06:05.376Z,14.35
2022-12-01T06:08:32.638Z,16.53
2022-12-01T06:11:00.138Z,13.65
2022-12-01T06:13:27.393Z,14.38
2022-12-01T06:16:02.345Z,18.02
2022-12-01T06:18:34.550Z,15.48
2022-12-01T06:21:02.106Z,15.38
2022-12-01T06:23:30.785Z,15.68
2022-12-01T06:25:58.839Z,17.75
2022-12-01T06:28:26.009Z,16.13
2022-12-01T06:30:55.497Z,13.75
2022-12-01T06:33:25.116Z,14.85
2022-12-01T06:36:02.710Z,13.57
2022-12-01T06:38:34.881Z,14.20
2022-12-01T06:41:02.250Z,13.20
2022-12-01T06:43:29.783Z,14.82
2022-12-01T06:46:01.561Z,13.77
2022-12-01T06:48:30.636Z,15.68
2022-12-01T06:53:25.442Z,12.95
2022-12-01T06:55:52.883Z,13.13
2022-12-01T06:58:20.099Z,14.52
2022-12-01T07:00:51.875Z,14.30
2022-12-01T07:03:19.455Z,12.57
2022-12-01T07:06:01.309Z,12.38
2022-12-01T07:08:30.073Z,12.93
2022-12-01T07:11:02.412Z,15.55
2022-12-01T07:13:33.286Z,13.77
2022-12-01T07:16:03.182Z,12.30
2022-12-01T07:18:30.879Z,13.60
2022-12-01T07:21:02.368Z,16.27
2022-12-01T07:23:30.194Z,14.70
2022-12-01T07:26:06.978Z,13.32
2022-12-01T07:28:34.119Z,15.07
2022-12-01T07:31:06.014Z,15.48
2022-12-01T07:33:33.386Z,13.98
2022-12-01T07:36:00.425Z,14.23
2022-12-01T07:38:31.066Z,12.98
2022-12-01T07:41:12.450Z,12.77
2022-12-01T07:43:40.582Z,14.43
2022-12-01T07:46:08.773Z,15.02
2022-12-01T07:48:37.179Z,15.07
2022-12-01T07:51:09.147Z,14.65
2022-12-01T07:53:36.852Z,14.73
2022-12-01T07:56:08.557Z,19.10
2022-12-01T07:58:36.556Z,14.20
2022-12-01T08:01:14.967Z,13.43
2022-12-01T08:03:43.496Z,13.57
2022-12-01T08:06:10.911Z,16.38
2022-12-01T08:08:40.828Z,16.35
2022-12-01T08:11:12.430Z,14.65
2022-12-01T08:13:40.383Z,13.18
2022-12-01T08:16:09.349Z,14.10
2022-12-01T08:18:38.329Z,13.77
2022-12-01T08:21:07.124Z,13.57
2022-12-01T08:23:34.517Z,14.05
2022-12-01T08:26:02.999Z,12.25
2022-12-01T08:28:30.646Z,14.05
2022-12-01T08:30:57.992Z,15.07
2022-12-01T08:33:25.109Z,15.32
2022-12-01T08:35:52.203Z,15.00
2022-12-01T08:38:19.385Z,18.70
2022-12-01T08:40:46.551Z,16.27
2022-12-01T08:43:41.396Z,21.88
2022-12-01T08:46:01.479Z,20.67
2022-12-01T08:48:28.947Z,18.77
2022-12-01T08:51:04.438Z,19.75
2022-12-01T08:53:31.917Z,18.85
2022-12-01T08:56:05.365Z,19.50
2022-12-01T08:58:32.584Z,16.95
2022-12-01T09:01:07.853Z,14.77
2022-12-01T09:03:36.399Z,14.45
2022-12-01T09:06:09.256Z,14.07
2022-12-01T09:08:37.364Z,16.05
2022-12-01T09:11:11.468Z,14.80
2022-12-01T09:13:39.613Z,16.85
2022-12-01T09:16:13.191Z,14.77
2022-12-01T09:18:41.335Z,15.85
2022-12-01T09:23:39.800Z,13.95
2022-12-01T09:26:12.126Z,15.20
2022-12-01T09:28:40.787Z,15.38
2022-12-01T09:31:11.055Z,14.53
2022-12-01T09:33:39.375Z,15.57
2022-12-01T09:41:05.732Z,12.10
2022-12-01T09:43:41.484Z,16.80
2022-12-01T09:46:22.699Z,13.23
2022-12-01T09:48:51.448Z,12.20
2022-12-01T09:51:21.366Z,12.40
2022-12-01T09:53:55.457Z,13.15
2022-12-01T09:56:48.678Z,13.77
2022-12-01T09:59:23.340Z,14.75
2022-12-01T10:02:00.974Z,12.23
2022-12-01T10:04:39.472Z,14.30
2022-12-01T10:07:25.469Z,11.95
2022-12-01T10:09:57.476Z,13.02
2022-12-01T10:12:26.295Z,12.00
2022-12-01T10:14:59.502Z,13.27
2022-12-01T10:18:11.036Z,12.25
2022-12-01T10:20:48.934Z,11.55
2022-12-01T10:23:39.394Z,14.27
2022-12-01T10:27:02.165Z,14.20
2022-12-01T10:29:29.191Z,12.05
2022-12-01T10:32:17.061Z,13.93
2022-12-01T10:34:44.374Z,14.63
2022-12-01T10:37:21.350Z,13.50
2022-12-01T10:39:52.516Z,12.73
2022-12-01T10:42:49.746Z,11.38
2022-12-01T10:45:28.580Z,13.50
2022-12-01T10:48:12.098Z,11.35
2022-12-01T10:50:39.370Z,10.60
2022-12-01T10:53:06.733Z,12.30
2022-12-01T10:55:41.953Z,12.15
2022-12-01T10:58:16.473Z,12.30
2022-12-01T11:00:59.082Z,14.77
2022-12-01T11:03:30.275Z,13.80
2022-12-01T11:05:59.870Z,13.13
2022-12-01T11:08:45.508Z,18.88
2022-12-01T11:11:35.786Z,14.60
2022-12-01T11:14:06.596Z,15.02
2022-12-01T11:16:43.135Z,15.40
2022-12-01T11:19:27.352Z,13.82
2022-12-01T11:21:59.956Z,14.57
2022-12-01T11:24:33.269Z,14.02
2022-12-01T11:27:00.945Z,13.63
2022-12-01T11:29:35.625Z,13.48
2022-12-01T11:32:21.310Z,12.82
2022-12-01T11:35:01.154Z,12.02
2022-12-01T11:37:33.024Z,12.13
2022-12-01T11:40:27.758Z,11.30
2022-12-01T11:42:59.250Z,14.95
2022-12-01T11:45:26.291Z,15.40
2022-12-01T11:48:03.911Z,15.93
2022-12-01T11:50:35.362Z,16.73
2022-12-01T11:53:02.986Z,15.38
2022-12-01T11:55:31.419Z,15.25
2022-12-01T11:58:03.624Z,14.48
2022-12-01T12:00:52.101Z,14.75
2022-12-01T12:03:37.913Z,14.07
2022-12-01T12:06:40.025Z,14.20
2022-12-01T12:09:41.751Z,14.80
2022-12-01T12:12:59.432Z,13.23
2022-12-01T12:15:53.879Z,13.02
2022-12-01T12:19:11.957Z,11.77
2022-12-01T12:22:08.112Z,15.48
2022-12-01T12:24:43.943Z,13.27
2022-12-01T12:27:20.048Z,14.05
2022-12-01T12:30:18.814Z,12.45
2022-12-01T12:33:10.990Z,11.73
2022-12-01T12:35:44.595Z,13.55
2022-12-01T12:38:34.933Z,12.02
2022-12-01T12:41:17.961Z,11.32
2022-12-01T12:44:18.970Z,11.65
2022-12-01T12:46:46.156Z,11.68
2022-12-01T12:49:31.885Z,10.57
2022-12-01T12:52:09.080Z,12.43
2022-12-01T12:54:45.294Z,12.48
2022-12-01T12:57:29.038Z,14.65
2022-12-01T13:00:16.642Z,12.48
2022-12-01T13:02:58.096Z,12.20
2022-12-01T13:05:33.689Z,12.20
2022-12-01T13:08:12.849Z,13.30
2022-12-01T13:10:39.857Z,10.85
2022-12-01T13:13:19.870Z,11.80
2022-12-01T13:15:50.449Z,10.70
2022-12-01T13:18:28.132Z,11.32
2022-12-01T13:20:57.069Z,13.15
2022-12-01T13:23:25.777Z,11.98
2022-12-01T13:25:55.662Z,12.77
2022-12-01T13:28:37.846Z,11.95
2022-12-01T13:31:14.168Z,9.30
2022-12-01T13:34:03.754Z,10.63
2022-12-01T13:36:48.178Z,14.40
2022-12-01T13:39:20.494Z,15.32
2022-12-01T13:41:58.767Z,18.30
2022-12-01T13:44:30.120Z,18.65
2022-12-01T13:47:02.625Z,16.55
2022-12-01T13:49:45.144Z,15.43
2022-12-01T13:52:21.069Z,15.18
2022-12-01T13:55:09.134Z,17.13
2022-12-01T13:57:38.703Z,16.92
2022-12-01T14:00:25.826Z,15.48
2022-12-01T14:03:17.643Z,11.05
2022-12-01T14:05:53.995Z,14.90
2022-12-01T14:08:33.038Z,20.60
2022-12-01T14:11:23.669Z,16.92
2022-12-01T14:13:58.667Z,16.38
2022-12-01T14:16:44.895Z,13.57
2022-12-01T14:19:50.047Z,14.90
2022-12-01T14:22:34.232Z,16.50
2022-12-01T14:25:03.402Z,15.60
2022-12-01T14:27:42.260Z,13.05
2022-12-01T14:30:40.603Z,14.30
2022-12-01T14:33:41.508Z,11.95
2022-12-01T14:36:22.693Z,13.10
2022-12-01T14:38:52.551Z,13.02
2022-12-01T14:41:41.135Z,15.63
2022-12-01T14:53:48.529Z,13.98
2022-12-01T14:56:20.688Z,13.95
2022-12-01T14:59:15.066Z,13.30
2022-12-01T15:01:42.292Z,10.95
2022-12-01T15:04:09.410Z,11.45
2022-12-01T15:06:37.873Z,8.93
2022-12-01T15:12:05.046Z,12.90
2022-12-01T15:14:37.260Z,11.63
2022-12-01T15:17:06.248Z,10.93
2022-12-01T15:19:35.837Z,10.95
2022-12-01T15:22:06.581Z,10.77
2022-12-01T15:24:34.083Z,11.27
2022-12-01T15:27:04.018Z,12.07
2022-12-01T15:29:35.815Z,13.40
2022-12-01T15:32:07.420Z,11.27
2022-12-01T15:34:46.884Z,11.90
2022-12-01T15:37:16.345Z,10.65
2022-12-01T15:39:49.320Z,13.38
2022-12-01T15:42:31.749Z,13.55
2022-12-01T15:45:20.054Z,11.90
2022-12-01T15:47:49.556Z,11.15
2022-12-01T15:50:26.163Z,11.95
2022-12-01T15:52:53.406Z,11.07
2022-12-01T15:55:39.144Z,12.27
2022-12-01T15:58:09.261Z,11.85
2022-12-01T16:00:36.434Z,9.68
2022-12-01T16:03:03.874Z,10.98
2022-12-01T16:05:33.089Z,9.52
2022-12-01T16:08:18.825Z,11.32
2022-12-01T16:11:06.809Z,10.93
2022-12-01T16:13:57.304Z,9.77
2022-12-01T16:16:43.931Z,9.75
2022-12-01T16:19:11.075Z,11.20
2022-12-01T16:21:59.255Z,9.73
2022-12-01T16:24:30.142Z,9.93
2022-12-01T16:26:59.285Z,10.52
2022-12-01T16:29:28.520Z,10.43
2022-12-01T16:32:21.628Z,11.27
2022-12-01T16:34:51.280Z,9.77
2022-12-01T16:37:18.637Z,11.48
2022-12-01T16:39:45.686Z,11.40
2022-12-01T16:42:16.005Z,12.35
2022-12-01T16:44:43.759Z,10.50
2022-12-01T16:47:20.085Z,9.95
2022-12-01T16:49:47.715Z,9.80
2022-12-01T16:52:42.905Z,12.07
2022-12-01T16:55:02.257Z,10.35
2022-12-01T16:57:29.337Z,10.25
2022-12-01T16:59:56.419Z,11.80
2022-12-01T17:02:23.661Z,9.88
2022-12-01T17:04:51.036Z,8.83
2022-12-01T17:07:18.433Z,11.13
2022-12-01T17:09:45.568Z,10.57
2022-12-01T17:12:12.695Z,10.03
2022-12-01T17:14:39.764Z,10.43
2022-12-01T17:17:06.960Z,12.05
2022-12-01T17:19:34.109Z,9.85
2022-12-01T17:22:01.136Z,9.43
2022-12-01T17:24:28.403Z,11.13
2022-12-01T17:26:55.561Z,8.63
2022-12-01T17:29:22.613Z,8.98
2022-12-01T17:31:49.748Z,9.80
2022-12-01T17:34:16.806Z,8.68
2022-12-01T17:36:43.889Z,9.63
2022-12-01T17:39:11.082Z,10.80
2022-12-01T17:41:38.242Z,9.77
2022-12-01T17:44:05.733Z,10.75
2022-12-01T17:46:32.903Z,9.80
2022-12-01T17:49:01.104Z,9.57
2022-12-01T17:51:28.202Z,10.25
2022-12-01T17:53:55.359Z,8.27
2022-12-01T17:56:22.537Z,10.35
2022-12-01T17:58:49.642Z,9.05
2022-12-01T18:01:18.844Z,10.05
2022-12-01T18:03:47.944Z,10.02
2022-12-01T18:06:16.570Z,9.55
2022-12-01T18:08:43.841Z,9.07
2022-12-01T18:11:15.060Z,10.83
2022-12-01T18:13:48.021Z,10.65
2022-12-01T18:16:20.533Z,9.52
2022-12-01T18:18:48.670Z,10.90
2022-12-01T18:21:18.506Z,10.75
2022-12-01T18:23:53.529Z,9.10
2022-12-01T18:26:21.332Z,10.45
2022-12-01T18:28:54.244Z,12.02
2022-12-01T18:31:21.595Z,12.20
2022-12-01T18:33:48.778Z,20.02
2022-12-01T18:36:21.903Z,20.65
2022-12-01T18:38:49.971Z,17.27
2022-12-01T18:41:17.498Z,14.80
2022-12-01T18:43:44.994Z,14.73
2022-12-01T18:46:14.576Z,16.67
2022-12-01T18:48:55.875Z,14.73
2022-12-01T18:51:23.072Z,14.57
2022-12-01T18:53:54.163Z,13.13
2022-12-01T18:56:21.493Z,10.38
2022-12-01T18:59:04.111Z,11.10
2022-12-01T19:01:36.732Z,12.40
2022-12-01T19:04:05.651Z,12.10
2022-12-01T19:06:34.915Z,11.20
2022-12-01T19:09:04.518Z,11.27
2022-12-01T19:11:32.134Z,10.07
2022-12-01T19:13:59.356Z,12.82
2022-12-01T19:16:28.456Z,12.97
2022-12-01T19:18:55.666Z,12.73
2022-12-01T19:21:23.048Z,11.07
2022-12-01T19:23:50.364Z,12.30
2022-12-01T19:26:20.378Z,11.20
2022-12-01T19:28:48.280Z,13.45
2022-12-01T19:31:21.314Z,12.50
2022-12-01T19:33:48.450Z,13.45
2022-12-01T19:36:19.595Z,15.17
2022-12-01T19:38:47.291Z,12.18
2022-12-01T19:41:15.465Z,13.70
2022-12-01T19:46:12.626Z,11.82
2022-12-01T19:48:40.221Z,10.63
2022-12-01T19:51:07.688Z,11.60
2022-12-01T19:53:34.761Z,11.65
2022-12-01T19:56:03.385Z,12.77
2022-12-01T19:58:33.389Z,10.60
2022-12-01T20:01:09.384Z,12.48
2022-12-01T20:03:37.381Z,11.75
2022-12-01T20:06:10.395Z,11.95
2022-12-01T20:08:37.960Z,11.38
2022-12-01T20:11:06.068Z,11.35
2022-12-01T20:13:36.299Z,9.95
2022-12-01T20:16:12.264Z,11.07
2022-12-01T20:18:40.423Z,9.77
2022-12-01T20:23:37.403Z,9.63
2022-12-01T20:28:34.962Z,8.95
2022-12-01T20:31:03.172Z,10.27
2022-12-01T20:33:31.292Z,9.70
2022-12-01T20:35:58.344Z,9.85
2022-12-01T20:38:27.630Z,10.65
2022-12-01T20:40:55.404Z,10.40
2022-12-01T20:43:22.620Z,9.00
2022-12-01T20:45:49.720Z,10.40
2022-12-01T20:48:17.311Z,9.40
2022-12-01T20:50:44.779Z,11.65
2022-12-01T20:53:11.864Z,12.25
2022-12-01T20:55:39.247Z,11.60
2022-12-01T20:58:07.187Z,10.18
2022-12-01T21:00:35.699Z,10.90
2022-12-01T21:03:03.677Z,11.60
2022-12-01T21:05:30.920Z,14.02
2022-12-01T21:07:58.537Z,13.70
2022-12-01T21:10:25.963Z,16.77
2022-12-01T21:12:59.986Z,15.07
2022-12-01T21:15:29.540Z,14.35
2022-12-01T21:18:03.422Z,14.40
2022-12-01T21:20:30.474Z,12.82
2022-12-01T21:23:15.671Z,13.55
2022-12-01T21:25:43.891Z,13.80
2022-12-01T21:30:49.257Z,16.00
2022-12-01T21:33:26.687Z,13.55
2022-12-01T21:35:55.559Z,10.57
2022-12-01T21:38:23.016Z,11.30
2022-12-01T21:40:50.197Z,9.45
2022-12-01T21:43:20.985Z,9.27
2022-12-01T21:46:10.893Z,9.55
2022-12-01T21:48:38.119Z,10.63
2022-12-01T21:51:16.065Z,9.55
2022-12-01T21:53:43.141Z,8.75
2022-12-01T21:56:20.465Z,11.13
2022-12-01T21:58:48.506Z,9.50
2022-12-01T22:01:35.784Z,8.25
2022-12-01T22:04:15.130Z,9.32
2022-12-01T22:06:46.543Z,8.30
2022-12-01T22:09:34.137Z,8.93
2022-12-01T22:12:06.874Z,8.85
2022-12-01T22:14:35.915Z,8.93
2022-12-01T22:17:05.968Z,9.00
2022-12-01T22:19:41.280Z,9.30
2022-12-01T22:22:11.122Z,8.57
2022-12-01T22:24:43.485Z,9.23
2022-12-01T22:27:48.553Z,9.02
2022-12-01T22:30:23.788Z,8.73
2022-12-01T22:32:53.355Z,9.10
2022-12-01T22:35:46.181Z,8.55
2022-12-01T22:38:42.638Z,8.10
2022-12-01T22:41:13.643Z,8.63
2022-12-01T22:43:51.936Z,9.45
2022-12-01T22:46:35.300Z,8.68
2022-12-01T22:49:22.320Z,10.82
2022-12-01T22:52:09.306Z,9.30
2022-12-01T22:54:43.174Z,8.00
2022-12-01T22:57:21.217Z,9.23
2022-12-01T22:59:48.456Z,8.70
2022-12-01T23:02:30.988Z,8.73
2022-12-01T23:05:12.960Z,9.73
2022-12-01T23:07:42.605Z,10.38
2022-12-01T23:10:29.039Z,10.82
2022-12-01T23:12:59.460Z,9.18
2022-12-01T23:15:38.397Z,9.88
2022-12-01T23:18:28.812Z,9.70
2022-12-01T23:21:02.032Z,10.73
2022-12-01T23:23:31.797Z,9.05
2022-12-01T23:26:01.195Z,8.80
2022-12-01T23:28:29.806Z,9.60
2022-12-01T23:30:59.155Z,9.38
2022-12-01T23:33:29.634Z,9.35
2022-12-01T23:36:04.108Z,8.95
2022-12-01T23:38:41.830Z,9.85
2022-12-01T23:41:25.816Z,9.65
2022-12-01T23:43:55.206Z,11.15
2022-12-01T23:46:25.029Z,11.07
2022-12-01T23:49:22.609Z,11.07
2022-12-01T23:51:54.723Z,10.95
2022-12-01T23:54:26.433Z,11.32
2022-12-01T23:56:58.196Z,11.68
2022-12-01T23:59:25.443Z,10.98
